createdAt,value
2019-05-15T00:01:15.521Z,62.60
2019-05-15T00:03:46.058Z,63.20
2019-05-15T00:06:16.183Z,63.50
2019-05-15T00:08:47.992Z,63.80
2019-05-15T00:11:19.421Z,64.40
2019-05-15T00:13:50.974Z,64.50
2019-05-15T00:16:21.076Z,64.50
2019-05-15T00:18:51.231Z,65.00
2019-05-15T00:21:21.649Z,65.30
2019-05-15T00:23:54.203Z,65.10
2019-05-15T00:26:26.103Z,65.70
2019-05-15T00:29:09.472Z,65.70
2019-05-15T00:31:29.183Z,66.00
2019-05-15T00:34:00.655Z,66.00
2019-05-15T00:36:31.116Z,66.40
2019-05-15T00:39:01.125Z,67.00
2019-05-15T00:41:33.088Z,67.00
2019-05-15T00:44:03.169Z,67.60
2019-05-15T00:46:33.296Z,68.00
2019-05-15T00:49:03.488Z,68.00
2019-05-15T00:51:33.766Z,68.60
2019-05-15T00:54:03.823Z,68.80
2019-05-15T00:59:04.107Z,68.90
2019-05-15T01:01:34.803Z,69.70
2019-05-15T01:04:04.943Z,70.20
2019-05-15T01:06:34.958Z,70.70
2019-05-15T01:09:08.370Z,70.40
2019-05-15T01:11:39.206Z,70.60
2019-05-15T01:14:12.193Z,70.80
2019-05-15T01:16:41.098Z,70.80
2019-05-15T01:19:11.184Z,71.00
2019-05-15T01:21:41.339Z,70.90
2019-05-15T01:24:11.417Z,71.00
2019-05-15T01:26:43.215Z,71.10
2019-05-15T01:29:13.444Z,71.00
2019-05-15T01:31:43.856Z,70.30
2019-05-15T01:34:14.295Z,70.80
2019-05-15T01:36:44.478Z,71.30
2019-05-15T01:39:14.926Z,70.50
2019-05-15T01:41:45.091Z,69.40
2019-05-15T01:44:15.358Z,69.30
2019-05-15T01:46:48.113Z,69.80
2019-05-15T01:49:18.628Z,69.50
2019-05-15T01:51:49.567Z,69.10
2019-05-15T01:54:19.659Z,68.90
2019-05-15T01:56:50.267Z,69.10
2019-05-15T01:59:20.295Z,69.30
2019-05-15T02:01:51.262Z,68.70
2019-05-15T02:04:21.307Z,69.20
2019-05-15T02:06:51.287Z,69.00
2019-05-15T02:09:21.339Z,68.90
2019-05-15T02:11:51.416Z,68.90
2019-05-15T02:14:21.728Z,69.10
2019-05-15T02:16:52.924Z,69.20
2019-05-15T02:19:23.570Z,69.40
2019-05-15T02:21:54.034Z,69.60
2019-05-15T02:24:24.752Z,69.70
2019-05-15T02:26:55.052Z,70.10
2019-05-15T02:29:25.390Z,70.40
2019-05-15T02:31:58.822Z,70.70
2019-05-15T02:34:30.009Z,70.70
2019-05-15T02:37:00.193Z,70.80
2019-05-15T02:39:30.431Z,71.00
2019-05-15T02:42:01.978Z,71.30
2019-05-15T02:44:32.065Z,71.20
2019-05-15T02:47:02.759Z,71.40
2019-05-15T02:49:34.501Z,71.50
2019-05-15T02:52:05.170Z,71.30
2019-05-15T02:54:35.334Z,71.40
2019-05-15T02:57:09.543Z,71.40
2019-05-15T02:59:39.983Z,71.70
2019-05-15T03:02:10.545Z,71.90
2019-05-15T03:04:41.595Z,72.20
2019-05-15T03:07:12.050Z,71.90
2019-05-15T03:09:42.046Z,72.50
2019-05-15T03:12:12.488Z,72.70
2019-05-15T03:14:42.875Z,73.00
2019-05-15T03:17:13.964Z,72.90
2019-05-15T03:19:44.438Z,75.40
2019-05-15T03:22:14.755Z,73.70
2019-05-15T03:24:46.041Z,73.60
2019-05-15T03:27:19.444Z,73.70
2019-05-15T03:29:49.426Z,73.70
2019-05-15T03:32:32.885Z,74.10
2019-05-15T03:34:56.975Z,74.10
2019-05-15T03:37:25.552Z,74.40
2019-05-15T03:39:55.815Z,74.20
2019-05-15T03:42:29.127Z,74.80
2019-05-15T03:44:59.670Z,74.40
2019-05-15T03:47:30.377Z,74.40
2019-05-15T03:50:02.168Z,75.00
2019-05-15T03:52:32.463Z,75.20
2019-05-15T03:55:02.960Z,75.00
2019-05-15T03:57:33.438Z,75.00
2019-05-15T04:00:03.712Z,74.70
2019-05-15T04:02:34.079Z,74.80
2019-05-15T04:05:05.265Z,75.40
2019-05-15T04:07:39.356Z,75.40
2019-05-15T04:10:10.456Z,75.80
2019-05-15T04:12:40.995Z,75.50
2019-05-15T04:15:13.674Z,75.40
2019-05-15T04:17:44.241Z,75.60
2019-05-15T04:20:14.688Z,75.80
2019-05-15T04:22:45.040Z,75.80
2019-05-15T04:25:15.260Z,76.10
2019-05-15T04:27:49.261Z,75.90
2019-05-15T04:30:19.592Z,75.40
2019-05-15T04:32:50.246Z,76.00
2019-05-15T04:35:20.326Z,75.90
2019-05-15T04:37:53.567Z,75.20
2019-05-15T04:40:24.009Z,75.80
2019-05-15T04:42:54.675Z,75.60
2019-05-15T04:45:24.825Z,75.70
2019-05-15T04:47:58.574Z,75.80
2019-05-15T04:50:28.831Z,74.80
2019-05-15T04:52:59.436Z,75.00
2019-05-15T04:55:29.570Z,74.70
2019-05-15T04:58:02.262Z,74.10
2019-05-15T05:00:54.240Z,74.70
2019-05-15T05:03:24.860Z,74.60
2019-05-15T05:05:55.401Z,73.90
2019-05-15T05:08:33.807Z,73.40
2019-05-15T05:11:09.666Z,72.00
2019-05-15T05:13:39.628Z,73.40
2019-05-15T05:16:29.433Z,72.50
2019-05-15T05:19:04.032Z,72.40
2019-05-15T05:21:38.410Z,71.90
2019-05-15T05:24:10.194Z,72.40
2019-05-15T05:26:45.288Z,72.20
2019-05-15T05:29:17.814Z,72.50
2019-05-15T05:31:49.164Z,72.00
2019-05-15T05:34:21.848Z,71.70
2019-05-15T05:36:52.123Z,71.30
2019-05-15T05:39:24.735Z,71.70
2019-05-15T05:41:58.794Z,71.90
2019-05-15T05:44:31.037Z,72.30
2019-05-15T05:47:01.337Z,72.50
2019-05-15T05:49:31.532Z,72.50
2019-05-15T05:52:03.746Z,72.00
2019-05-15T05:54:33.899Z,71.90
2019-05-15T05:57:04.090Z,70.30
2019-05-15T05:59:34.314Z,70.90
2019-05-15T06:02:04.617Z,69.90
2019-05-15T06:04:35.067Z,69.90
2019-05-15T06:07:13.131Z,69.00
2019-05-15T06:09:38.820Z,69.90
2019-05-15T06:12:09.993Z,70.40
2019-05-15T06:14:40.147Z,70.50
2019-05-15T06:17:10.219Z,69.80
2019-05-15T06:22:10.164Z,69.80
2019-05-15T06:24:40.899Z,70.60
2019-05-15T06:27:11.074Z,70.80
2019-05-15T06:29:41.542Z,70.80
2019-05-15T06:32:11.597Z,72.00
2019-05-15T06:34:41.902Z,71.80
2019-05-15T06:37:12.874Z,71.70
2019-05-15T06:39:43.032Z,70.20
2019-05-15T06:42:13.864Z,71.80
2019-05-15T06:44:44.805Z,70.50
2019-05-15T06:47:15.067Z,69.60
2019-05-15T06:49:45.267Z,68.80
2019-05-15T06:52:15.326Z,66.90
2019-05-15T06:54:45.459Z,67.50
2019-05-15T06:57:18.214Z,64.80
2019-05-15T06:59:48.581Z,65.40
2019-05-15T07:02:19.142Z,65.10
2019-05-15T07:04:49.224Z,64.50
2019-05-15T07:07:19.563Z,63.20
2019-05-15T07:09:49.668Z,63.50
2019-05-15T07:12:20.986Z,63.90
2019-05-15T07:14:51.667Z,63.90
2019-05-15T07:17:21.765Z,62.60
2019-05-15T07:19:53.151Z,61.30
2019-05-15T07:22:23.190Z,61.30
2019-05-15T07:24:54.675Z,61.10
2019-05-15T07:27:24.696Z,61.60
2019-05-15T07:29:58.222Z,61.30
2019-05-15T07:32:28.558Z,61.40
2019-05-15T07:34:58.946Z,60.50
2019-05-15T07:37:29.130Z,59.00
2019-05-15T07:39:59.323Z,59.00
2019-05-15T07:42:29.527Z,59.20
2019-05-15T07:45:00.835Z,58.70
2019-05-15T07:47:32.299Z,59.00
2019-05-15T07:50:02.535Z,59.60
2019-05-15T07:52:34.100Z,60.30
2019-05-15T07:55:04.554Z,62.40
2019-05-15T07:57:39.398Z,61.40
2019-05-15T08:00:10.266Z,61.70
2019-05-15T08:02:41.880Z,61.70
2019-05-15T08:05:12.480Z,61.30
2019-05-15T08:07:42.592Z,60.30
2019-05-15T08:10:14.331Z,59.70
2019-05-15T08:12:44.463Z,59.80
2019-05-15T08:15:18.106Z,59.50
2019-05-15T08:18:04.222Z,57.20
2019-05-15T08:20:19.816Z,57.10
2019-05-15T08:22:49.874Z,57.10
2019-05-15T08:25:31.240Z,57.30
2019-05-15T08:27:51.863Z,57.20
2019-05-15T08:30:22.157Z,56.80
2019-05-15T08:32:52.247Z,56.30
2019-05-15T08:35:22.548Z,56.70
2019-05-15T08:37:52.911Z,56.20
2019-05-15T08:40:22.947Z,55.70
2019-05-15T08:42:58.057Z,55.60
2019-05-15T08:45:28.133Z,54.30
2019-05-15T08:47:58.542Z,54.60
2019-05-15T08:50:29.855Z,55.00
2019-05-15T08:53:00.495Z,54.60
2019-05-15T08:55:30.816Z,53.10
2019-05-15T08:58:06.691Z,53.60
2019-05-15T09:00:32.749Z,53.50
2019-05-15T09:03:03.570Z,53.10
2019-05-15T09:05:33.736Z,52.90
2019-05-15T09:08:03.821Z,51.80
2019-05-15T09:10:33.875Z,50.90
2019-05-15T09:13:03.938Z,52.40
2019-05-15T09:15:34.497Z,51.40
2019-05-15T09:18:14.724Z,50.80
2019-05-15T09:20:38.406Z,51.40
2019-05-15T09:23:09.062Z,51.30
2019-05-15T09:25:42.118Z,51.00
2019-05-15T09:28:13.608Z,51.30
2019-05-15T09:30:44.194Z,51.10
2019-05-15T09:33:14.329Z,52.30
2019-05-15T09:35:45.736Z,52.50
2019-05-15T09:38:18.183Z,52.40
2019-05-15T09:40:50.975Z,52.40
2019-05-15T09:43:21.082Z,51.60
2019-05-15T09:45:51.167Z,51.90
2019-05-15T09:48:21.170Z,51.60
2019-05-15T09:50:51.732Z,51.50
2019-05-15T09:53:23.384Z,50.60
2019-05-15T09:55:53.711Z,50.70
2019-05-15T09:58:24.410Z,50.00
2019-05-15T10:00:54.868Z,50.40
2019-05-15T10:03:25.030Z,49.90
2019-05-15T10:05:55.106Z,50.30
2019-05-15T10:08:25.091Z,48.70
2019-05-15T10:10:55.101Z,49.00
2019-05-15T10:13:26.212Z,48.40
2019-05-15T10:15:58.577Z,48.50
2019-05-15T10:18:30.209Z,49.20
2019-05-15T10:21:00.385Z,49.60
2019-05-15T10:23:30.430Z,49.80
2019-05-15T10:26:00.546Z,50.10
2019-05-15T10:28:30.744Z,50.30
2019-05-15T10:31:00.830Z,50.40
2019-05-15T10:33:31.248Z,49.20
2019-05-15T10:36:01.658Z,48.40
2019-05-15T10:38:31.733Z,48.40
2019-05-15T10:41:08.807Z,47.60
2019-05-15T10:43:34.983Z,48.00
2019-05-15T10:46:12.439Z,47.40
2019-05-15T10:48:38.699Z,47.00
2019-05-15T10:51:10.221Z,47.20
2019-05-15T10:53:41.340Z,47.40
2019-05-15T10:56:13.904Z,48.60
2019-05-15T10:58:44.282Z,48.20
2019-05-15T11:01:14.616Z,47.90
2019-05-15T11:03:45.889Z,47.60
2019-05-15T11:06:18.287Z,47.80
2019-05-15T11:08:51.578Z,48.40
2019-05-15T11:11:31.979Z,48.40
2019-05-15T11:16:33.453Z,48.10
2019-05-15T11:19:04.991Z,47.80
2019-05-15T11:21:35.101Z,47.70
2019-05-15T11:24:05.802Z,47.80
2019-05-15T11:26:38.907Z,48.80
2019-05-15T11:29:09.694Z,48.60
2019-05-15T11:31:41.261Z,48.40
2019-05-15T11:34:11.387Z,47.90
2019-05-15T11:36:42.888Z,47.70
2019-05-15T11:39:12.979Z,46.60
2019-05-15T11:41:43.255Z,46.20
2019-05-15T11:44:13.810Z,46.20
2019-05-15T11:46:51.871Z,46.50
2019-05-15T11:49:22.691Z,46.80
2019-05-15T11:52:00.401Z,46.80
2019-05-15T11:54:28.460Z,47.70
2019-05-15T11:57:00.640Z,47.60
2019-05-15T11:59:30.690Z,45.40
2019-05-15T12:02:01.179Z,45.80
2019-05-15T12:04:34.159Z,45.80
2019-05-15T12:07:04.993Z,45.10
2019-05-15T12:09:35.206Z,44.90
2019-05-15T12:12:05.436Z,44.80
2019-05-15T12:14:38.705Z,44.60
2019-05-15T12:17:14.987Z,44.50
2019-05-15T12:19:39.883Z,44.80
2019-05-15T12:22:12.334Z,44.60
2019-05-15T12:24:43.029Z,44.60
2019-05-15T12:27:17.953Z,45.00
2019-05-15T12:29:45.279Z,45.50
2019-05-15T12:32:26.617Z,46.00
2019-05-15T12:34:49.493Z,44.90
2019-05-15T12:37:20.711Z,43.60
2019-05-15T13:00:10.541Z,41.90
2019-05-15T13:02:40.860Z,41.80
2019-05-15T13:05:12.158Z,42.00
2019-05-15T13:07:44.098Z,42.40
2019-05-15T13:10:14.593Z,42.60
2019-05-15T13:12:57.243Z,42.30
2019-05-15T13:15:18.998Z,40.70
2019-05-15T13:17:52.602Z,40.90
2019-05-15T13:20:21.158Z,41.70
2019-05-15T13:22:51.605Z,41.90
2019-05-15T13:25:23.479Z,41.50
2019-05-15T13:27:57.925Z,39.20
2019-05-15T13:30:29.975Z,39.40
2019-05-15T13:32:59.806Z,40.00
2019-05-15T13:35:30.032Z,40.80
2019-05-15T13:38:00.068Z,40.60
2019-05-15T13:40:37.506Z,40.50
2019-05-15T13:43:02.528Z,41.30
2019-05-15T13:45:32.611Z,41.40
2019-05-15T13:48:02.980Z,42.50
2019-05-15T13:50:34.185Z,43.00
2019-05-15T13:53:10.039Z,43.00
2019-05-15T13:55:42.542Z,43.10
2019-05-15T13:58:10.552Z,43.30
2019-05-15T14:00:40.627Z,43.20
2019-05-15T14:03:12.164Z,44.60
2019-05-15T14:05:44.968Z,44.50
2019-05-15T14:08:14.279Z,44.50
2019-05-15T14:10:44.359Z,44.90
2019-05-15T14:13:14.823Z,45.10
2019-05-15T14:15:48.648Z,44.20
2019-05-15T14:18:19.718Z,44.70
2019-05-15T14:20:50.531Z,44.70
2019-05-15T14:23:20.768Z,44.50
2019-05-15T14:25:51.314Z,44.20
2019-05-15T14:28:21.380Z,44.70
2019-05-15T14:30:51.623Z,44.20
2019-05-15T14:33:22.221Z,44.20
2019-05-15T14:35:52.307Z,44.80
2019-05-15T14:38:23.044Z,44.50
2019-05-15T14:40:54.042Z,45.20
2019-05-15T14:43:24.399Z,45.40
2019-05-15T14:45:54.476Z,44.40
2019-05-15T14:48:25.002Z,44.90
2019-05-15T14:50:55.575Z,44.90
2019-05-15T14:53:25.652Z,44.80
2019-05-15T14:55:55.802Z,44.60
2019-05-15T14:58:27.162Z,44.00
2019-05-15T15:01:03.018Z,44.60
2019-05-15T15:03:29.627Z,44.70
2019-05-15T15:05:59.826Z,45.20
2019-05-15T15:08:32.776Z,45.10
2019-05-15T15:11:03.136Z,44.60
2019-05-15T15:13:33.618Z,44.10
2019-05-15T15:16:03.718Z,43.90
2019-05-15T15:18:34.170Z,43.80
2019-05-15T15:21:05.033Z,43.80
2019-05-15T15:23:38.745Z,44.30
2019-05-15T15:26:08.949Z,45.00
2019-05-15T15:28:40.179Z,44.70
2019-05-15T15:31:10.758Z,44.60
2019-05-15T15:33:41.170Z,45.00
2019-05-15T15:36:11.471Z,45.00
2019-05-15T15:38:44.112Z,45.00
2019-05-15T15:41:14.674Z,45.70
2019-05-15T15:43:44.951Z,45.50
2019-05-15T15:46:15.094Z,45.60
2019-05-15T15:48:48.335Z,45.70
2019-05-15T15:51:19.140Z,45.70
2019-05-15T15:53:49.339Z,46.30
2019-05-15T15:56:19.567Z,45.30
2019-05-15T15:58:49.870Z,45.70
2019-05-15T16:01:23.467Z,45.40
2019-05-15T16:03:53.133Z,45.70
2019-05-15T16:06:24.687Z,46.00
2019-05-15T16:08:55.914Z,46.40
2019-05-15T16:11:27.971Z,47.00
2019-05-15T16:13:58.577Z,47.10
2019-05-15T16:16:31.182Z,47.40
2019-05-15T16:19:01.219Z,48.10
2019-05-15T16:21:31.352Z,48.20
2019-05-15T16:24:13.752Z,47.80
2019-05-15T16:26:34.934Z,47.40
2019-05-15T16:29:05.160Z,48.00
2019-05-15T16:31:35.467Z,48.00
2019-05-15T16:34:08.064Z,47.50
2019-05-15T16:36:38.516Z,47.80
2019-05-15T16:39:11.886Z,47.80
2019-05-15T16:41:41.234Z,47.50
2019-05-15T16:44:12.611Z,48.00
2019-05-15T16:46:43.673Z,48.10
2019-05-15T16:49:14.608Z,48.10
2019-05-15T16:51:44.775Z,47.90
2019-05-15T16:54:18.062Z,47.40
2019-05-15T16:56:48.817Z,47.30
2019-05-15T16:59:19.954Z,47.80
2019-05-15T17:01:50.129Z,47.90
2019-05-15T17:04:21.107Z,48.30
2019-05-15T17:06:51.244Z,48.30
2019-05-15T17:09:22.028Z,47.90
2019-05-15T17:11:52.347Z,47.70
2019-05-15T17:14:23.579Z,48.00
2019-05-15T17:16:53.699Z,48.00
2019-05-15T17:19:24.067Z,48.20
2019-05-15T17:21:54.080Z,48.40
2019-05-15T17:24:24.267Z,48.70
2019-05-15T17:26:55.896Z,49.10
2019-05-15T17:29:26.239Z,48.30
2019-05-15T17:31:57.789Z,48.60
2019-05-15T17:34:28.635Z,49.00
2019-05-15T17:37:01.838Z,48.10
2019-05-15T17:39:36.602Z,48.40
2019-05-15T17:42:05.637Z,48.90
2019-05-15T17:44:38.226Z,49.10
2019-05-15T17:47:09.854Z,49.20
2019-05-15T17:49:40.248Z,49.40
2019-05-15T17:52:10.348Z,49.20
2019-05-15T17:54:40.954Z,49.50
2019-05-15T17:57:12.043Z,50.00
2019-05-15T17:59:45.512Z,49.90
2019-05-15T18:02:15.917Z,49.90
2019-05-15T18:04:48.035Z,50.70
2019-05-15T18:07:18.305Z,50.50
2019-05-15T18:09:54.087Z,50.10
2019-05-15T18:12:20.646Z,50.00
2019-05-15T18:14:50.846Z,49.90
2019-05-15T18:17:22.946Z,50.20
2019-05-15T18:19:53.349Z,50.30
2019-05-15T18:22:23.782Z,50.40
2019-05-15T18:24:53.791Z,50.30
2019-05-15T18:27:25.718Z,50.70
2019-05-15T18:29:58.429Z,50.60
2019-05-15T18:32:31.212Z,50.90
2019-05-15T18:35:03.114Z,50.70
2019-05-15T18:37:35.154Z,51.20
2019-05-15T18:40:10.053Z,51.00
2019-05-15T18:42:39.564Z,51.00
2019-05-15T18:45:10.371Z,50.90
2019-05-15T18:47:40.472Z,51.40
2019-05-15T18:50:13.214Z,51.50
2019-05-15T18:52:43.724Z,51.60
2019-05-15T18:55:13.917Z,52.20
2019-05-15T18:57:43.733Z,52.50
2019-05-15T19:00:14.620Z,52.70
2019-05-15T19:02:45.117Z,53.10
2019-05-15T19:05:18.574Z,53.10
2019-05-15T19:07:49.649Z,53.20
2019-05-15T19:10:20.062Z,53.40
2019-05-15T19:12:50.183Z,53.50
2019-05-15T19:15:20.326Z,53.60
2019-05-15T19:17:51.051Z,53.20
2019-05-15T19:20:21.336Z,53.80
2019-05-15T19:22:51.496Z,53.90
2019-05-15T19:25:23.121Z,54.00
2019-05-15T19:27:54.392Z,54.20
2019-05-15T19:30:24.925Z,54.40
2019-05-15T19:32:54.940Z,54.60
2019-05-15T19:35:27.859Z,54.30
2019-05-15T19:37:58.563Z,54.40
2019-05-15T19:40:29.507Z,54.20
2019-05-15T19:43:03.885Z,54.90
2019-05-15T19:45:33.501Z,55.00
2019-05-15T19:48:03.930Z,55.10
2019-05-15T19:50:34.604Z,55.40
2019-05-15T19:53:05.064Z,55.60
2019-05-15T19:55:35.215Z,55.60
2019-05-15T19:58:05.780Z,55.70
2019-05-15T20:00:38.418Z,55.90
2019-05-15T20:03:08.467Z,55.90
2019-05-15T20:05:38.576Z,56.10
2019-05-15T20:08:10.802Z,56.10
2019-05-15T20:10:40.928Z,56.10
2019-05-15T20:13:11.360Z,56.60
2019-05-15T20:15:41.484Z,56.60
2019-05-15T20:18:13.457Z,56.70
2019-05-15T20:20:44.227Z,56.90
2019-05-15T20:23:14.656Z,57.20
2019-05-15T20:25:44.702Z,57.30
2019-05-15T20:28:15.118Z,57.40
2019-05-15T20:30:45.147Z,57.30
2019-05-15T20:33:17.857Z,57.60
2019-05-15T20:35:48.122Z,56.60
2019-05-15T20:38:18.185Z,57.90
2019-05-15T20:40:48.715Z,57.90
2019-05-15T20:43:19.058Z,58.00
2019-05-15T20:45:49.107Z,58.10
2019-05-15T20:48:21.046Z,58.30
2019-05-15T20:50:51.354Z,58.60
2019-05-15T20:53:21.715Z,58.90
2019-05-15T20:55:51.901Z,59.00
2019-05-15T20:58:22.499Z,59.30
2019-05-15T21:00:53.902Z,59.50
2019-05-15T21:03:24.952Z,59.60
2019-05-15T21:05:57.750Z,59.60
2019-05-15T21:08:28.884Z,59.80
2019-05-15T21:10:59.240Z,59.80
2019-05-15T21:13:29.822Z,60.40
2019-05-15T21:16:01.423Z,59.90
2019-05-15T21:18:31.571Z,60.30
2019-05-15T21:21:02.331Z,60.50
2019-05-15T21:23:32.330Z,61.00
2019-05-15T21:26:02.401Z,61.30
2019-05-15T21:28:32.666Z,61.40
2019-05-15T21:31:02.970Z,61.60
2019-05-15T21:33:33.306Z,62.60
2019-05-15T21:36:03.656Z,62.90
2019-05-15T21:38:34.427Z,63.90
2019-05-15T21:41:04.482Z,64.40
2019-05-15T21:43:34.648Z,65.30
2019-05-15T21:46:05.085Z,65.40
2019-05-15T21:48:38.093Z,65.90
2019-05-15T21:51:11.388Z,65.90
2019-05-15T21:53:39.980Z,65.10
2019-05-15T21:56:10.089Z,65.70
2019-05-15T21:58:40.115Z,65.50
2019-05-15T22:01:10.875Z,65.20
2019-05-15T22:03:41.548Z,65.20
2019-05-15T22:06:11.700Z,65.10
2019-05-15T22:08:42.208Z,65.20
2019-05-15T22:11:12.323Z,65.20
2019-05-15T22:13:42.792Z,65.80
2019-05-15T22:16:12.955Z,65.70
2019-05-15T22:18:43.704Z,65.90
2019-05-15T22:21:13.863Z,66.60
2019-05-15T22:23:43.959Z,67.40
2019-05-15T22:26:14.024Z,67.50
2019-05-15T22:28:44.023Z,67.90
2019-05-15T22:31:14.494Z,67.90
2019-05-15T22:33:44.570Z,68.50
2019-05-15T22:36:14.903Z,68.60
2019-05-15T22:38:44.947Z,68.70
2019-05-15T22:41:15.310Z,68.70
2019-05-15T22:43:45.384Z,68.80
2019-05-15T22:46:18.605Z,69.00
2019-05-15T22:48:48.707Z,69.00
2019-05-15T22:51:18.775Z,69.90
2019-05-15T22:53:49.026Z,70.20
2019-05-15T22:56:20.524Z,70.60
2019-05-15T22:58:50.459Z,70.70
2019-05-15T23:01:21.171Z,71.00
2019-05-15T23:03:51.520Z,71.60
2019-05-15T23:06:21.595Z,71.40
2019-05-15T23:08:52.094Z,71.60
2019-05-15T23:11:24.585Z,71.80
2019-05-15T23:13:54.258Z,72.20
2019-05-15T23:16:24.263Z,72.40
2019-05-15T23:18:54.258Z,72.80
2019-05-15T23:21:25.414Z,73.20
2019-05-15T23:23:55.402Z,73.30
2019-05-15T23:26:27.804Z,73.60
2019-05-15T23:28:58.540Z,73.40
2019-05-15T23:31:29.057Z,72.60
2019-05-15T23:33:59.119Z,73.00
2019-05-15T23:36:29.547Z,72.90
2019-05-15T23:38:59.590Z,72.90
2019-05-15T23:41:29.843Z,72.90
2019-05-15T23:43:59.919Z,73.00
2019-05-15T23:46:30.296Z,73.20
2019-05-15T23:49:00.319Z,73.00
2019-05-15T23:51:30.450Z,73.10
2019-05-15T23:54:00.448Z,73.20
2019-05-15T23:56:30.413Z,73.40
2019-05-15T23:59:00.713Z,73.60
